createdAt,value
2023-05-14T00:00:50.517Z,101470.81
2023-05-14T00:03:16.330Z,101473.59
2023-05-14T00:05:42.108Z,101469.72
2023-05-14T00:08:07.773Z,101471.66
2023-05-14T00:10:33.459Z,101467.19
2023-05-14T00:12:59.109Z,101472.72
2023-05-14T00:15:24.760Z,101475.25
2023-05-14T00:17:50.413Z,101471.66
2023-05-14T00:20:16.140Z,101473.59
2023-05-14T00:22:41.825Z,101476.34
2023-05-14T00:25:07.940Z,101473.59
2023-05-14T00:27:34.165Z,101470.81
2023-05-14T00:29:59.829Z,101470.81
2023-05-14T00:32:25.705Z,101472.72
2023-05-14T00:34:51.371Z,101471.66
2023-05-14T00:37:17.001Z,101465.00
2023-05-14T00:39:42.669Z,101466.94
2023-05-14T00:42:08.303Z,101460.59
2023-05-14T00:44:34.840Z,101458.66
2023-05-14T00:47:00.852Z,101457.00
2023-05-14T00:49:27.752Z,101450.63
2023-05-14T00:51:53.758Z,101449.53
2023-05-14T00:54:20.010Z,101445.94
2023-05-14T00:56:46.095Z,101453.38
2023-05-14T00:59:12.343Z,101448.72
2023-05-14T01:01:38.362Z,101441.22
2023-05-14T01:04:05.269Z,101444.81
2023-05-14T01:06:58.817Z,101444.00
2023-05-14T01:12:37.549Z,101430.19
2023-05-14T01:17:45.970Z,101413.59
2023-05-14T01:20:11.712Z,101418.28
2023-05-14T01:22:37.435Z,101408.06
2023-05-14T01:25:04.735Z,101415.53
2023-05-14T01:27:38.417Z,101416.34
2023-05-14T01:30:14.331Z,101421.06
2023-05-14T01:32:40.643Z,101419.13
2023-05-14T01:35:07.498Z,101417.44
2023-05-14T01:37:33.970Z,101418.00
2023-05-14T01:39:59.890Z,101421.06
2023-05-14T01:42:25.737Z,101412.75
2023-05-14T01:44:51.457Z,101414.66
2023-05-14T01:47:17.115Z,101410.00
2023-05-14T01:49:42.769Z,101421.06
2023-05-14T01:52:08.438Z,101421.06
2023-05-14T01:54:34.126Z,101422.13
2023-05-14T01:56:59.782Z,101422.97
2023-05-14T01:59:25.492Z,101418.28
2023-05-14T02:01:51.232Z,101426.59
2023-05-14T02:04:17.303Z,101424.66
2023-05-14T02:06:42.976Z,101420.19
2023-05-14T02:09:08.646Z,101421.88
2023-05-14T02:11:34.300Z,101421.06
2023-05-14T02:13:59.938Z,101420.19
2023-05-14T02:16:25.639Z,101417.19
2023-05-14T02:18:51.488Z,101425.47
2023-05-14T02:21:17.205Z,101418.28
2023-05-14T02:23:43.421Z,101412.75
2023-05-14T02:26:09.867Z,101417.44
2023-05-14T02:28:35.541Z,101410.00
2023-05-14T02:31:01.243Z,101406.38
2023-05-14T02:33:27.379Z,101407.22
2023-05-14T02:35:53.554Z,101396.16
2023-05-14T02:38:19.678Z,101404.47
2023-05-14T02:40:45.327Z,101393.41
2023-05-14T02:43:11.025Z,101387.00
2023-05-14T02:45:36.695Z,101389.78
2023-05-14T02:48:02.460Z,101395.31
2023-05-14T02:50:28.170Z,101393.41
2023-05-14T02:52:53.807Z,101404.47
2023-05-14T02:55:19.493Z,101396.16
2023-05-14T02:57:45.888Z,101396.16
2023-05-14T03:00:11.913Z,101404.47
2023-05-14T03:02:38.107Z,101406.38
2023-05-14T03:05:04.674Z,101407.22
2023-05-14T03:07:30.314Z,101401.69
2023-05-14T03:09:55.991Z,101394.47
2023-05-14T03:12:21.725Z,101396.16
2023-05-14T03:14:47.361Z,101404.47
2023-05-14T03:17:13.081Z,101400.84
2023-05-14T03:19:38.737Z,101405.28
2023-05-14T03:22:04.464Z,101396.16
2023-05-14T03:24:30.700Z,101393.41
2023-05-14T03:26:56.339Z,101396.16
2023-05-14T03:29:21.994Z,101392.53
2023-05-14T03:31:47.648Z,101396.16
2023-05-14T03:34:13.344Z,101395.31
2023-05-14T03:36:39.002Z,101400.84
2023-05-14T03:39:06.224Z,101393.41
2023-05-14T03:41:32.310Z,101400.00
2023-05-14T03:43:57.939Z,101400.84
2023-05-14T03:46:23.621Z,101390.88
2023-05-14T03:48:49.337Z,101403.59
2023-05-14T03:51:15.120Z,101395.31
2023-05-14T03:53:41.110Z,101400.84
2023-05-14T03:56:06.778Z,101401.69
2023-05-14T03:58:32.444Z,101401.69
2023-05-14T04:00:58.102Z,101391.72
2023-05-14T04:03:23.859Z,101394.47
2023-05-14T04:05:50.320Z,101401.69
2023-05-14T04:08:16.036Z,101386.19
2023-05-14T04:10:42.249Z,101388.94
2023-05-14T04:13:07.961Z,101393.66
2023-05-14T04:15:34.948Z,101386.19
2023-05-14T04:18:00.998Z,101389.78
2023-05-14T04:20:26.722Z,101386.19
2023-05-14T04:22:53.208Z,101383.41
2023-05-14T04:25:19.162Z,101387.00
2023-05-14T04:27:45.030Z,101385.38
2023-05-14T04:30:10.990Z,101387.00
2023-05-14T04:32:37.196Z,101383.41
2023-05-14T04:35:03.629Z,101384.53
2023-05-14T04:37:30.112Z,101383.41
2023-05-14T04:39:55.845Z,101378.72
2023-05-14T04:42:21.601Z,101387.00
2023-05-14T04:44:47.750Z,101371.53
2023-05-14T04:47:13.502Z,101375.13
2023-05-14T04:49:39.197Z,101377.06
2023-05-14T04:52:05.707Z,101377.88
2023-05-14T04:54:31.485Z,101378.72
2023-05-14T04:56:57.154Z,101375.13
2023-05-14T04:59:22.807Z,101385.09
2023-05-14T05:01:48.649Z,101378.72
2023-05-14T05:04:14.390Z,101381.47
2023-05-14T05:06:40.104Z,101379.56
2023-05-14T05:09:05.809Z,101380.41
2023-05-14T05:11:31.473Z,101381.22
2023-05-14T05:13:57.125Z,101377.63
2023-05-14T05:16:22.832Z,101381.47
2023-05-14T05:18:48.590Z,101381.47
2023-05-14T05:21:14.225Z,101380.66
2023-05-14T05:23:39.876Z,101381.47
2023-05-14T05:26:05.515Z,101381.47
2023-05-14T05:28:31.242Z,101374.31
2023-05-14T05:30:56.947Z,101377.06
2023-05-14T05:33:22.685Z,101372.34
2023-05-14T05:35:49.304Z,101373.47
2023-05-14T05:38:17.363Z,101385.38
2023-05-14T05:40:43.250Z,101377.06
2023-05-14T05:43:08.890Z,101378.19
2023-05-14T05:45:34.533Z,101384.25
2023-05-14T05:48:00.232Z,101385.38
2023-05-14T05:50:26.030Z,101375.13
2023-05-14T05:52:52.017Z,101383.41
2023-05-14T05:55:18.342Z,101388.13
2023-05-14T05:57:44.003Z,101384.53
2023-05-14T06:00:12.977Z,101386.19
2023-05-14T06:02:40.810Z,101391.72
2023-05-14T06:05:07.710Z,101397.00
2023-05-14T06:07:33.643Z,101388.13
2023-05-14T06:09:59.313Z,101388.94
2023-05-14T06:12:25.087Z,101400.84
2023-05-14T06:14:50.754Z,101393.66
2023-05-14T06:17:16.648Z,101385.38
2023-05-14T06:19:42.305Z,101390.06
2023-05-14T06:22:07.952Z,101392.84
2023-05-14T06:24:34.352Z,101395.31
2023-05-14T06:27:00.050Z,101397.53
2023-05-14T06:29:25.734Z,101405.53
2023-05-14T06:31:51.609Z,101401.13
2023-05-14T06:34:17.314Z,101402.78
2023-05-14T06:36:42.945Z,101407.47
2023-05-14T06:39:09.079Z,101401.13
2023-05-14T06:41:34.742Z,101407.47
2023-05-14T06:44:00.395Z,101393.66
2023-05-14T06:46:26.070Z,101399.19
2023-05-14T06:48:51.727Z,101400.84
2023-05-14T06:51:17.426Z,101387.00
2023-05-14T06:53:43.077Z,101391.72
2023-05-14T06:56:08.734Z,101388.94
2023-05-14T06:58:34.403Z,101398.34
2023-05-14T07:01:00.181Z,101384.53
2023-05-14T07:03:25.924Z,101383.72
2023-05-14T07:05:51.563Z,101390.06
2023-05-14T07:08:17.219Z,101388.13
2023-05-14T07:10:42.865Z,101382.59
2023-05-14T07:13:08.706Z,101389.25
2023-05-14T07:15:34.383Z,101386.19
2023-05-14T07:18:00.147Z,101387.00
2023-05-14T07:20:26.287Z,101392.84
2023-05-14T07:22:52.291Z,101387.00
2023-05-14T07:25:17.939Z,101388.94
2023-05-14T07:27:43.597Z,101390.88
2023-05-14T07:30:09.534Z,101389.25
2023-05-14T07:32:35.208Z,101388.13
2023-05-14T07:35:00.927Z,101386.19
2023-05-14T07:37:26.586Z,101390.06
2023-05-14T07:39:52.650Z,101392.84
2023-05-14T07:42:31.729Z,101381.78
2023-05-14T07:44:57.849Z,101382.88
2023-05-14T07:47:23.603Z,101390.63
2023-05-14T07:49:53.611Z,101387.88
2023-05-14T07:52:19.271Z,101398.34
2023-05-14T07:54:44.903Z,101386.19
2023-05-14T07:57:10.574Z,101398.34
2023-05-14T07:59:36.216Z,101393.66
2023-05-14T08:02:01.938Z,101389.25
2023-05-14T08:04:27.691Z,101384.53
2023-05-14T08:06:54.588Z,101388.94
2023-05-14T08:09:20.221Z,101391.72
2023-05-14T08:11:45.879Z,101388.13
2023-05-14T08:14:11.515Z,101393.66
2023-05-14T08:16:37.995Z,101388.13
2023-05-14T08:19:03.712Z,101390.88
2023-05-14T08:21:29.383Z,101390.88
2023-05-14T08:23:55.034Z,101390.06
2023-05-14T08:26:21.084Z,101397.53
2023-05-14T08:28:46.711Z,101386.47
2023-05-14T08:31:13.759Z,101388.13
2023-05-14T08:33:39.641Z,101385.09
2023-05-14T08:36:06.432Z,101382.59
2023-05-14T08:38:32.568Z,101380.94
2023-05-14T08:40:58.991Z,101378.19
2023-05-14T08:43:26.975Z,101381.78
2023-05-14T08:45:57.533Z,101380.66
2023-05-14T08:48:25.999Z,101373.19
2023-05-14T08:50:51.735Z,101375.13
2023-05-14T08:53:17.431Z,101377.06
2023-05-14T08:55:43.694Z,101373.47
2023-05-14T08:58:09.480Z,101360.47
2023-05-14T09:00:35.120Z,101372.34
2023-05-14T09:03:01.203Z,101364.06
2023-05-14T09:05:27.174Z,101371.53
2023-05-14T09:07:52.844Z,101367.94
2023-05-14T09:10:18.515Z,101356.06
2023-05-14T09:12:44.159Z,101364.34
2023-05-14T09:15:10.173Z,101366.00
2023-05-14T09:17:35.888Z,101368.78
2023-05-14T09:20:01.742Z,101365.19
2023-05-14T09:22:31.013Z,101357.72
2023-05-14T09:25:12.333Z,101349.41
2023-05-14T09:27:38.426Z,101356.88
2023-05-14T09:30:07.358Z,101354.13
2023-05-14T09:32:49.668Z,101346.13
2023-05-14T09:35:21.522Z,101343.34
2023-05-14T09:37:49.802Z,101337.53
2023-05-14T09:40:16.400Z,101331.47
2023-05-14T09:42:42.061Z,101338.66
2023-05-14T09:45:08.899Z,101331.19
2023-05-14T09:47:35.518Z,101331.72
2023-05-14T09:50:01.472Z,101324.53
2023-05-14T09:52:27.245Z,101330.06
2023-05-14T09:54:53.020Z,101316.22
2023-05-14T09:57:19.538Z,101325.34
2023-05-14T09:59:45.270Z,101314.28
2023-05-14T10:02:16.353Z,101318.19
2023-05-14T10:04:42.731Z,101317.34
2023-05-14T10:07:08.783Z,101319.00
2023-05-14T10:09:35.293Z,101318.19
2023-05-14T10:12:01.172Z,101322.06
2023-05-14T10:14:32.981Z,101319.28
2023-05-14T10:17:00.976Z,101320.13
2023-05-14T10:19:27.232Z,101312.94
2023-05-14T10:21:56.168Z,101305.72
2023-05-14T10:24:22.201Z,101308.75
2023-05-14T10:26:48.143Z,101309.88
2023-05-14T10:29:13.837Z,101302.41
2023-05-14T10:31:54.673Z,101299.66
2023-05-14T10:34:41.736Z,101296.06
2023-05-14T10:37:10.445Z,101298.81
2023-05-14T10:39:49.552Z,101288.88
2023-05-14T10:42:20.073Z,101288.88
2023-05-14T10:44:54.574Z,101289.69
2023-05-14T10:47:20.635Z,101291.34
2023-05-14T10:49:51.146Z,101279.47
2023-05-14T10:52:18.640Z,101280.28
2023-05-14T10:54:54.249Z,101276.69
2023-05-14T10:57:21.803Z,101275.88
2023-05-14T10:59:49.248Z,101273.09
2023-05-14T11:02:20.708Z,101268.41
2023-05-14T11:05:08.401Z,101269.22
2023-05-14T11:07:37.151Z,101266.47
2023-05-14T11:10:04.826Z,101259.28
2023-05-14T11:12:31.205Z,101251.81
2023-05-14T11:14:58.345Z,101250.16
2023-05-14T11:17:25.588Z,101251.00
2023-05-14T11:19:51.370Z,101242.69
2023-05-14T11:22:17.062Z,101243.53
2023-05-14T11:24:42.716Z,101238.81
2023-05-14T11:27:08.705Z,101240.75
2023-05-14T11:29:35.878Z,101238.00
2023-05-14T11:32:04.254Z,101226.09
2023-05-14T11:34:30.027Z,101236.06
2023-05-14T11:36:55.686Z,101230.53
2023-05-14T11:39:21.335Z,101230.53
2023-05-14T11:41:46.994Z,101223.34
2023-05-14T11:44:12.818Z,101228.88
2023-05-14T11:46:38.543Z,101228.88
2023-05-14T11:49:04.638Z,101224.16
2023-05-14T11:51:31.149Z,101221.69
2023-05-14T11:53:58.101Z,101222.22
2023-05-14T11:56:24.043Z,101220.56
2023-05-14T11:58:55.407Z,101217.00
2023-05-14T12:01:21.082Z,101217.00
2023-05-14T12:03:46.826Z,101219.75
2023-05-14T12:06:12.516Z,101209.81
2023-05-14T12:08:38.208Z,101204.28
2023-05-14T12:11:03.866Z,101203.16
2023-05-14T12:13:30.555Z,101198.47
2023-05-14T12:15:57.870Z,101205.09
2023-05-14T12:18:25.480Z,101200.41
2023-05-14T12:20:51.353Z,101185.75
2023-05-14T12:23:24.896Z,101197.63
2023-05-14T12:25:51.022Z,101187.41
2023-05-14T12:28:17.220Z,101191.00
2023-05-14T12:30:42.931Z,101185.47
2023-05-14T12:33:09.076Z,101188.22
2023-05-14T12:35:36.110Z,101179.09
2023-05-14T12:38:02.601Z,101174.41
2023-05-14T12:40:28.548Z,101170.81
2023-05-14T12:42:56.621Z,101181.88
2023-05-14T12:45:22.671Z,101176.34
2023-05-14T12:47:48.438Z,101177.44
2023-05-14T12:50:14.130Z,101164.47
2023-05-14T12:52:40.196Z,101165.28
2023-05-14T12:55:07.293Z,101157.81
2023-05-14T12:57:34.320Z,101170.81
2023-05-14T13:00:00.416Z,101153.41
2023-05-14T13:02:26.059Z,101147.88
2023-05-14T13:04:51.717Z,101143.97
2023-05-14T13:07:17.628Z,101145.94
2023-05-14T13:09:43.288Z,101144.28
2023-05-14T13:12:09.021Z,101145.09
2023-05-14T13:14:35.557Z,101145.09
2023-05-14T13:17:01.801Z,101134.88
2023-05-14T13:19:27.461Z,101139.56
2023-05-14T13:21:53.102Z,101137.94
2023-05-14T13:24:18.748Z,101128.50
2023-05-14T13:26:44.400Z,101128.50
2023-05-14T13:29:10.460Z,101129.34
2023-05-14T13:31:36.197Z,101133.22
2023-05-14T13:34:01.993Z,101125.19
2023-05-14T13:36:27.898Z,101126.88
2023-05-14T13:38:53.555Z,101131.28
2023-05-14T13:41:19.207Z,101123.81
2023-05-14T13:43:44.892Z,101118.28
2023-05-14T13:46:10.586Z,101118.28
2023-05-14T13:48:36.545Z,101114.69
2023-05-14T13:51:02.412Z,101124.63
2023-05-14T13:53:28.213Z,101112.75
2023-05-14T13:55:57.679Z,101119.09
2023-05-14T13:58:24.677Z,101113.56
2023-05-14T14:00:51.132Z,101113.88
2023-05-14T14:03:16.818Z,101102.81
2023-05-14T14:05:42.574Z,101103.63
2023-05-14T14:08:22.766Z,101109.16
2023-05-14T14:10:50.048Z,101107.22
2023-05-14T14:13:15.773Z,101104.75
2023-05-14T14:15:42.665Z,101097.81
2023-05-14T14:18:08.312Z,101093.38
2023-05-14T14:20:34.197Z,101092.56
2023-05-14T14:22:59.927Z,101093.38
2023-05-14T14:25:25.643Z,101095.34
2023-05-14T14:27:51.484Z,101091.75
2023-05-14T14:30:17.142Z,101077.91
2023-05-14T14:32:44.197Z,101085.91
2023-05-14T14:35:11.044Z,101080.38
2023-05-14T14:37:36.692Z,101085.91
2023-05-14T14:40:03.046Z,101077.63
2023-05-14T14:42:28.820Z,101077.63
2023-05-14T14:44:54.446Z,101074.88
2023-05-14T14:47:20.090Z,101070.44
2023-05-14T14:49:45.727Z,101066.56
2023-05-14T14:52:11.393Z,101071.28
2023-05-14T14:54:37.028Z,101074.03
2023-05-14T14:57:02.737Z,101061.03
2023-05-14T14:59:28.369Z,101064.91
2023-05-14T15:01:54.310Z,101069.34
2023-05-14T15:04:19.965Z,101067.69
2023-05-14T15:06:45.610Z,101064.91
2023-05-14T15:09:11.243Z,101064.91
2023-05-14T15:11:37.558Z,101068.50
2023-05-14T15:14:03.428Z,101064.09
2023-05-14T15:16:29.118Z,101064.63
2023-05-14T15:18:54.856Z,101062.97
2023-05-14T15:21:20.629Z,101074.88
2023-05-14T15:23:46.283Z,101064.09
2023-05-14T15:26:11.953Z,101066.56
2023-05-14T15:28:37.601Z,101064.09
2023-05-14T15:31:03.382Z,101066.56
2023-05-14T15:33:29.067Z,101056.34
2023-05-14T15:35:54.704Z,101063.50
2023-05-14T15:38:20.348Z,101060.22
2023-05-14T15:40:45.976Z,101064.63
2023-05-14T15:43:11.705Z,101058.28
2023-05-14T15:45:37.352Z,101052.75
2023-05-14T15:48:03.089Z,101052.75
2023-05-14T15:50:28.745Z,101050.81
2023-05-14T15:52:54.423Z,101042.81
2023-05-14T15:55:20.202Z,101053.56
2023-05-14T15:57:45.871Z,101052.75
2023-05-14T16:00:11.905Z,101054.38
2023-05-14T16:02:38.289Z,101058.28
2023-05-14T16:05:04.790Z,101052.44
2023-05-14T16:07:30.459Z,101048.84
2023-05-14T16:09:56.124Z,101052.75
2023-05-14T16:12:21.758Z,101058.28
2023-05-14T16:14:47.433Z,101049.97
2023-05-14T16:17:13.084Z,101052.75
2023-05-14T16:19:38.966Z,101055.50
2023-05-14T16:22:04.626Z,101049.97
2023-05-14T16:24:30.276Z,101060.22
2023-05-14T16:26:56.182Z,101051.63
2023-05-14T16:29:21.970Z,101054.38
2023-05-14T16:31:47.614Z,101057.16
2023-05-14T16:34:13.350Z,101053.56
2023-05-14T16:36:39.047Z,101052.75
2023-05-14T16:39:07.795Z,101051.63
2023-05-14T16:41:34.947Z,101051.63
2023-05-14T16:44:00.606Z,101045.28
2023-05-14T16:46:28.303Z,101048.03
2023-05-14T16:48:54.344Z,101039.75
2023-05-14T16:51:19.994Z,101039.75
2023-05-14T16:53:45.762Z,101048.03
2023-05-14T16:56:11.462Z,101050.81
2023-05-14T16:58:37.242Z,101051.63
2023-05-14T17:01:02.958Z,101051.63
2023-05-14T17:03:28.657Z,101059.91
2023-05-14T17:05:54.302Z,101047.22
2023-05-14T17:08:20.185Z,101038.09
2023-05-14T17:10:45.835Z,101050.81
2023-05-14T17:13:11.478Z,101048.84
2023-05-14T17:15:38.293Z,101052.44
2023-05-14T17:18:04.009Z,101054.38
2023-05-14T17:20:30.225Z,101059.91
2023-05-14T17:22:55.880Z,101061.88
2023-05-14T17:25:23.248Z,101058.84
2023-05-14T17:27:49.029Z,101059.09
2023-05-14T17:30:14.757Z,101048.03
2023-05-14T17:32:40.424Z,101061.03
2023-05-14T17:35:07.015Z,101057.16
2023-05-14T17:37:32.666Z,101053.56
2023-05-14T17:39:58.370Z,101057.16
2023-05-14T17:42:24.042Z,101059.09
2023-05-14T17:44:49.712Z,101056.34
2023-05-14T17:47:15.392Z,101060.75
2023-05-14T17:49:41.050Z,101061.59
2023-05-14T17:52:06.702Z,101063.50
2023-05-14T17:54:32.343Z,101065.44
2023-05-14T17:56:57.997Z,101066.28
2023-05-14T17:59:24.395Z,101059.91
2023-05-14T18:01:50.227Z,101069.03
2023-05-14T18:04:15.930Z,101062.69
2023-05-14T18:06:41.583Z,101062.69
2023-05-14T18:09:07.260Z,101070.97
2023-05-14T18:11:33.235Z,101074.56
2023-05-14T18:13:59.757Z,101069.88
2023-05-14T18:16:25.715Z,101074.56
2023-05-14T18:18:51.488Z,101068.22
2023-05-14T18:21:17.186Z,101069.03
2023-05-14T18:23:42.828Z,101069.03
2023-05-14T18:26:08.543Z,101074.56
2023-05-14T18:28:34.243Z,101070.97
2023-05-14T18:30:59.936Z,101068.22
2023-05-14T18:33:25.886Z,101069.03
2023-05-14T18:35:52.643Z,101068.22
2023-05-14T18:38:18.999Z,101073.75
2023-05-14T18:40:45.436Z,101074.56
2023-05-14T18:43:12.527Z,101077.34
2023-05-14T18:45:38.993Z,101083.97
2023-05-14T18:48:05.225Z,101081.22
2023-05-14T18:50:30.973Z,101090.63
2023-05-14T18:52:56.625Z,101085.91
2023-05-14T18:55:22.405Z,101087.56
2023-05-14T18:57:48.320Z,101088.41
2023-05-14T19:00:14.347Z,101088.41
2023-05-14T19:02:40.575Z,101082.88
2023-05-14T19:05:07.146Z,101086.47
2023-05-14T19:07:32.795Z,101083.97
2023-05-14T19:09:58.445Z,101087.56
2023-05-14T19:12:24.119Z,101087.88
2023-05-14T19:14:49.770Z,101085.91
2023-05-14T19:17:15.838Z,101091.16
2023-05-14T19:19:42.397Z,101088.69
2023-05-14T19:22:08.044Z,101093.09
2023-05-14T19:24:33.705Z,101089.50
2023-05-14T19:26:59.359Z,101086.75
2023-05-14T19:29:24.998Z,101096.69
2023-05-14T19:31:50.720Z,101100.56
2023-05-14T19:34:16.386Z,101101.41
2023-05-14T19:36:42.055Z,101104.97
2023-05-14T19:39:07.699Z,101102.22
2023-05-14T19:41:33.357Z,101104.44
2023-05-14T19:43:59.013Z,101108.88
2023-05-14T19:46:24.740Z,101108.88
2023-05-14T19:48:50.381Z,101108.88
2023-05-14T19:51:16.047Z,101104.16
2023-05-14T19:53:41.703Z,101104.16
2023-05-14T19:56:07.370Z,101105.28
2023-05-14T19:58:33.022Z,101106.09
2023-05-14T20:00:59.917Z,101109.69
2023-05-14T20:03:25.611Z,101105.28
2023-05-14T20:05:52.518Z,101106.09
2023-05-14T20:08:19.915Z,101108.03
2023-05-14T20:10:46.605Z,101099.75
2023-05-14T20:13:12.334Z,101103.34
2023-05-14T20:15:38.668Z,101103.34
2023-05-14T20:18:04.376Z,101099.75
2023-05-14T20:20:32.995Z,101095.88
2023-05-14T20:22:59.302Z,101102.22
2023-05-14T20:25:27.331Z,101100.56
2023-05-14T20:27:53.935Z,101096.97
2023-05-14T20:30:19.567Z,101099.44
2023-05-14T20:32:45.499Z,101100.56
2023-05-14T20:35:11.262Z,101092.28
2023-05-14T20:37:37.115Z,101095.03
2023-05-14T20:40:04.113Z,101096.97
2023-05-14T20:42:29.790Z,101098.63
2023-05-14T20:44:55.474Z,101105.28
2023-05-14T20:47:25.653Z,101106.91
2023-05-14T20:49:51.437Z,101099.75
2023-05-14T20:52:17.600Z,101099.75
2023-05-14T20:54:43.569Z,101107.22
2023-05-14T20:57:10.979Z,101108.88
2023-05-14T20:59:36.645Z,101103.34
2023-05-14T21:02:02.355Z,101103.34
2023-05-14T21:04:28.194Z,101112.44
2023-05-14T21:06:53.975Z,101106.09
2023-05-14T21:09:22.380Z,101104.97
2023-05-14T21:11:47.933Z,101103.06
2023-05-14T21:14:13.712Z,101096.97
2023-05-14T21:16:39.438Z,101091.44
2023-05-14T21:19:05.201Z,101091.16
2023-05-14T21:21:30.888Z,101096.16
2023-05-14T21:23:56.539Z,101090.34
2023-05-14T21:26:22.247Z,101090.34
2023-05-14T21:28:48.225Z,101079.56
2023-05-14T21:31:13.881Z,101091.44
2023-05-14T21:33:40.546Z,101085.63
2023-05-14T21:36:07.409Z,101086.75
2023-05-14T21:38:33.438Z,101083.16
2023-05-14T21:40:59.093Z,101076.81
2023-05-14T21:43:25.132Z,101084.81
2023-05-14T21:45:50.874Z,101078.44
2023-05-14T21:48:16.656Z,101075.69
2023-05-14T21:50:42.341Z,101076.50
2023-05-14T21:53:08.026Z,101075.69
2023-05-14T21:55:33.989Z,101082.88
2023-05-14T21:57:59.666Z,101074.88
2023-05-14T22:00:25.330Z,101082.88
2023-05-14T22:02:52.528Z,101078.44
2023-05-14T22:05:18.731Z,101086.75
2023-05-14T22:07:44.543Z,101090.34
2023-05-14T22:10:12.011Z,101080.09
2023-05-14T22:12:37.673Z,101081.22
2023-05-14T22:15:04.705Z,101080.38
2023-05-14T22:17:30.404Z,101081.50
2023-05-14T22:19:56.091Z,101082.03
2023-05-14T22:22:21.729Z,101082.88
2023-05-14T22:24:47.384Z,101078.19
2023-05-14T22:27:13.030Z,101070.97
2023-05-14T22:29:38.679Z,101068.22
2023-05-14T22:32:06.705Z,101070.16
2023-05-14T22:34:32.354Z,101063.50
2023-05-14T22:36:58.014Z,101061.88
2023-05-14T22:39:23.662Z,101067.13
2023-05-14T22:41:54.018Z,101066.56
2023-05-14T22:44:20.555Z,101067.13
2023-05-14T22:46:46.361Z,101060.75
2023-05-14T22:49:12.025Z,101056.34
2023-05-14T22:51:37.914Z,101052.44
2023-05-14T22:54:03.740Z,101042.50
2023-05-14T22:56:29.976Z,101045.28
2023-05-14T22:58:59.407Z,101048.03
2023-05-14T23:01:25.955Z,101048.84
2023-05-14T23:03:51.642Z,101039.75
2023-05-14T23:06:17.598Z,101045.28
2023-05-14T23:08:43.257Z,101044.44
2023-05-14T23:11:09.133Z,101045.28
2023-05-14T23:13:34.796Z,101036.72
2023-05-14T23:16:00.745Z,101033.09
2023-05-14T23:18:26.540Z,101033.09
2023-05-14T23:20:52.358Z,101046.09
2023-05-14T23:23:18.006Z,101029.50
2023-05-14T23:25:43.667Z,101033.38
2023-05-14T23:28:09.522Z,101035.03
2023-05-14T23:30:35.186Z,101029.50
2023-05-14T23:33:00.880Z,101030.34
2023-05-14T23:35:26.777Z,101035.03
2023-05-14T23:37:54.337Z,101029.50
2023-05-14T23:40:20.023Z,101028.69
2023-05-14T23:42:45.801Z,101030.34
2023-05-14T23:45:12.255Z,101027.56
2023-05-14T23:47:38.304Z,101026.75
2023-05-14T23:50:04.288Z,101022.88
2023-05-14T23:52:29.931Z,101020.38
2023-05-14T23:54:55.573Z,101017.63
2023-05-14T23:57:21.329Z,101020.38
2023-05-14T23:59:46.984Z,101021.22
